createdAt,value
2018-11-10T00:01:18.075Z,9.79
2018-11-10T00:07:13.065Z,7.1
2018-11-10T00:13:08.099Z,7.14
2018-11-10T00:19:03.075Z,8.07
2018-11-10T00:24:58.075Z,8.45
2018-11-10T00:30:53.144Z,8.18
2018-11-10T00:36:48.078Z,7.62
2018-11-10T00:42:43.093Z,6.67
2018-11-10T00:48:38.088Z,4.75
2018-11-10T00:54:33.123Z,5
2018-11-10T01:00:28.095Z,4.92
2018-11-10T01:06:23.089Z,5.4
2018-11-10T01:12:18.102Z,5.75
2018-11-10T01:18:13.093Z,6.19
2018-11-10T01:24:08.129Z,5.49
2018-11-10T01:30:07.201Z,4.47
2018-11-10T01:35:58.139Z,4.14
2018-11-10T01:41:53.125Z,3.78
2018-11-10T01:47:48.111Z,3.9
2018-11-10T01:53:43.129Z,2.95
2018-11-10T01:59:38.152Z,3.38
2018-11-10T02:05:33.123Z,3.3
2018-11-10T02:11:28.120Z,3.87
2018-11-10T02:17:23.166Z,3.96
2018-11-10T02:23:18.154Z,3.86
2018-11-10T02:29:13.181Z,5.84
2018-11-10T02:35:08.144Z,5.36
2018-11-10T02:41:03.153Z,9.23
2018-11-10T02:46:58.192Z,8.4
2018-11-10T02:52:53.276Z,9.14
2018-11-10T02:58:48.215Z,7.99
2018-11-10T03:04:43.201Z,7.15
2018-11-10T03:10:38.233Z,6.17
2018-11-10T03:16:33.197Z,4.79
2018-11-10T03:22:28.191Z,4.72
2018-11-10T03:28:23.203Z,4.17
2018-11-10T03:34:18.176Z,3.53
2018-11-10T03:40:13.187Z,2.7
2018-11-10T03:46:08.182Z,3.14
2018-11-10T03:52:03.201Z,2.62
2018-11-10T03:57:58.192Z,2.75
2018-11-10T04:03:53.193Z,2.56
2018-11-10T04:09:48.184Z,2.46
2018-11-10T04:15:43.193Z,2.63
2018-11-10T04:21:38.200Z,3.34
2018-11-10T04:27:33.204Z,3.23
2018-11-10T04:33:28.233Z,4.4
2018-11-10T04:39:23.208Z,4.98
2018-11-10T04:45:18.228Z,4.2
2018-11-10T04:51:13.245Z,4.02
2018-11-10T04:57:08.221Z,4.43
2018-11-10T05:03:03.241Z,4.2
2018-11-10T05:08:58.238Z,4.8
2018-11-10T05:14:53.262Z,4.23
2018-11-10T05:20:48.249Z,3.89
2018-11-10T05:26:43.242Z,3.47
2018-11-10T05:32:38.250Z,3.78
2018-11-10T05:38:33.240Z,4.01
2018-11-10T05:44:28.255Z,3.41
2018-11-10T05:50:23.275Z,2.97
2018-11-10T05:56:18.228Z,3.79
2018-11-10T06:02:13.260Z,4.17
2018-11-10T06:08:08.261Z,4.58
2018-11-10T06:14:03.249Z,4.4
2018-11-10T06:19:58.268Z,5.38
2018-11-10T06:25:53.313Z,7.32
2018-11-10T06:31:48.265Z,6.74
2018-11-10T06:37:43.283Z,6.03
2018-11-10T06:43:38.323Z,5.34
2018-11-10T06:49:33.271Z,6.93
2018-11-10T06:55:28.292Z,7.42
2018-11-10T07:01:23.294Z,7.47
2018-11-10T07:07:18.336Z,8.55
2018-11-10T07:13:13.319Z,9.39
2018-11-10T07:19:08.334Z,8.19
2018-11-10T07:25:03.457Z,9.07
2018-11-10T07:30:58.314Z,9.45
2018-11-10T07:36:53.298Z,11.11
2018-11-10T07:42:48.305Z,9.69
2018-11-10T07:48:43.302Z,11.44
2018-11-10T07:54:38.310Z,29.17
2018-11-10T08:00:33.365Z,25.48
2018-11-10T08:06:28.337Z,88.41
2018-11-10T08:12:23.319Z,26.9
2018-11-10T08:18:18.362Z,15.77
2018-11-10T08:24:13.332Z,12.98
2018-11-10T08:30:08.322Z,14.34
2018-11-10T08:36:03.337Z,10.24
2018-11-10T08:41:58.346Z,11.87
2018-11-10T08:47:53.341Z,8.77
2018-11-10T08:53:48.345Z,13.5
2018-11-10T08:59:43.346Z,12.24
2018-11-10T09:05:38.391Z,11.28
2018-11-10T09:11:33.349Z,11.12
2018-11-10T09:17:28.412Z,11.87
2018-11-10T09:23:23.405Z,11.91
2018-11-10T09:29:18.353Z,10.8
2018-11-10T09:35:13.376Z,11.25
2018-11-10T09:41:08.353Z,10.62
2018-11-10T09:47:03.372Z,8.92
2018-11-10T09:52:58.387Z,14.71
2018-11-10T09:58:53.404Z,14.83
2018-11-10T10:04:48.400Z,15.33
2018-11-10T10:10:43.383Z,14.84
2018-11-10T10:16:38.461Z,14.3
2018-11-10T10:22:33.451Z,14.21
2018-11-10T10:28:28.512Z,11.8
2018-11-10T10:34:23.546Z,9.92
2018-11-10T10:40:18.405Z,8.19
2018-11-10T10:46:13.413Z,9.2
2018-11-10T10:52:08.405Z,6.53
2018-11-10T10:58:03.405Z,7.06
2018-11-10T11:03:58.403Z,9.8
2018-11-10T11:09:53.423Z,11.22
2018-11-10T11:15:48.559Z,9.06
2018-11-10T11:21:43.490Z,10.9
2018-11-10T11:27:38.414Z,13.4
2018-11-10T11:33:33.505Z,8.34
2018-11-10T11:39:28.442Z,7.93
2018-11-10T11:45:23.436Z,6.85
2018-11-10T11:51:18.522Z,5.72
2018-11-10T11:57:13.445Z,7.08
2018-11-10T12:03:08.472Z,8.86
2018-11-10T12:09:03.471Z,35.32
2018-11-10T12:14:58.452Z,6.53
2018-11-10T12:20:53.549Z,8.33
2018-11-10T12:26:48.469Z,4.41
2018-11-10T12:32:43.459Z,4.91
2018-11-10T12:38:38.503Z,6.13
2018-11-10T12:44:33.497Z,4.57
2018-11-10T12:50:28.511Z,4.32
2018-11-10T12:56:23.470Z,4.64
2018-11-10T13:02:18.480Z,4.43
2018-11-10T13:08:13.579Z,3.67
2018-11-10T13:14:08.498Z,3.21
2018-11-10T13:20:03.488Z,3.92
2018-11-10T13:25:58.485Z,3.09
2018-11-10T13:31:53.544Z,2.7
2018-11-10T13:37:48.554Z,3.21
2018-11-10T13:43:43.613Z,2.93
2018-11-10T13:49:38.505Z,3.27
2018-11-10T13:55:33.516Z,3.54
2018-11-10T14:01:28.487Z,3.16
2018-11-10T14:07:23.524Z,3.4
2018-11-10T14:13:18.534Z,5.21
2018-11-10T14:19:13.538Z,3.63
2018-11-10T14:25:08.545Z,3.8
2018-11-10T14:31:03.545Z,3.82
2018-11-10T14:36:58.557Z,4.83
2018-11-10T14:42:53.550Z,4.16
2018-11-10T14:48:48.545Z,3.33
2018-11-10T14:54:43.534Z,3.08
2018-11-10T15:00:38.543Z,8.01
2018-11-10T15:06:33.566Z,5.23
2018-11-10T15:12:28.544Z,3.48
2018-11-10T15:18:23.668Z,11.47
2018-11-10T15:24:18.556Z,5.57
2018-11-10T15:30:13.575Z,3.6
2018-11-10T15:36:08.606Z,5.07
2018-11-10T15:42:03.596Z,5.44
2018-11-10T15:47:58.592Z,6.16
2018-11-10T15:53:53.668Z,5.21
2018-11-10T15:59:48.602Z,4.03
2018-11-10T16:05:43.579Z,4.16
2018-11-10T16:11:38.591Z,7.05
2018-11-10T16:17:33.612Z,6.33
2018-11-10T16:23:28.611Z,6.41
2018-11-10T16:29:23.592Z,4.24
2018-11-10T16:35:18.589Z,6.31
2018-11-10T16:41:13.612Z,6.24
2018-11-10T16:47:08.606Z,8.64
2018-11-10T16:53:03.680Z,8.36
2018-11-10T16:58:58.754Z,23.65
2018-11-10T17:04:53.652Z,11.77
2018-11-10T17:10:48.596Z,6.11
2018-11-10T17:16:43.608Z,4.84
2018-11-10T17:22:38.777Z,7.03
2018-11-10T17:28:33.640Z,8.9
2018-11-10T17:34:28.629Z,7.85
2018-11-10T17:40:23.769Z,10.55
2018-11-10T17:46:18.632Z,16.59
2018-11-10T17:52:13.714Z,15.83
2018-11-10T17:58:08.665Z,19.78
2018-11-10T18:04:03.650Z,20.96
2018-11-10T18:09:58.716Z,21.15
2018-11-10T18:15:53.644Z,9.47
2018-11-10T18:21:48.663Z,6.03
2018-11-10T18:27:43.689Z,10.77
2018-11-10T18:33:38.736Z,12.38
2018-11-10T18:39:33.785Z,14.73
2018-11-10T18:45:28.673Z,14.37
2018-11-10T18:51:23.659Z,26.76
2018-11-10T18:57:18.819Z,19.96
2018-11-10T19:03:13.686Z,64.52
2018-11-10T19:09:08.681Z,65.9
2018-11-10T19:15:03.681Z,34.78
2018-11-10T19:20:58.736Z,24.27
2018-11-10T19:26:53.679Z,10.52
2018-11-10T19:32:48.684Z,18.37
2018-11-10T19:38:43.693Z,22.97
2018-11-10T19:44:38.858Z,23.61
2018-11-10T19:50:33.817Z,23.71
2018-11-10T19:56:28.704Z,38.22
2018-11-10T20:02:23.703Z,36.65
2018-11-10T20:08:18.757Z,27.32
2018-11-10T20:14:13.721Z,27.87
2018-11-10T20:20:08.710Z,23.43
2018-11-10T20:26:03.711Z,21.21
2018-11-10T20:31:58.717Z,19.25
2018-11-10T20:37:53.749Z,9.13
2018-11-10T20:43:48.744Z,7.52
2018-11-10T20:49:43.762Z,11.12
2018-11-10T20:55:38.727Z,12.85
2018-11-10T21:01:33.769Z,7.63
2018-11-10T21:07:28.748Z,8.77
2018-11-10T21:13:23.758Z,8.47
2018-11-10T21:19:18.784Z,15.8
2018-11-10T21:25:13.805Z,18.12
2018-11-10T21:31:08.748Z,18.48
2018-11-10T21:37:03.750Z,17.19
2018-11-10T21:42:58.753Z,18.9
2018-11-10T21:48:53.802Z,16.99
2018-11-10T21:54:48.775Z,16.44
2018-11-10T22:00:43.762Z,16.78
2018-11-10T22:06:38.788Z,15.45
2018-11-10T22:12:33.846Z,15.02
2018-11-10T22:18:28.906Z,14.13
2018-11-10T22:24:23.785Z,11.25
2018-11-10T22:30:18.831Z,13.59
2018-11-10T22:36:13.798Z,14.86
2018-11-10T22:42:08.787Z,14.56
2018-11-10T22:48:03.914Z,21.41
2018-11-10T22:53:58.797Z,14.77
2018-11-10T22:59:53.808Z,14.39
2018-11-10T23:05:48.808Z,13.68
2018-11-10T23:11:43.821Z,21.95
2018-11-10T23:17:38.830Z,16.13
2018-11-10T23:23:33.869Z,38.6
2018-11-10T23:29:28.808Z,24.31
2018-11-10T23:35:23.836Z,18.08
2018-11-10T23:41:18.846Z,16.98
2018-11-10T23:47:13.844Z,17.35
2018-11-10T23:53:08.869Z,16.8
2018-11-10T23:59:03.930Z,16.36
